createdAt,value
2023-04-25T00:00:57.853Z,99924.04
2023-04-25T00:03:28.867Z,99927.33
2023-04-25T00:06:03.105Z,99929.87
2023-04-25T00:08:33.900Z,99929.68
2023-04-25T00:11:04.896Z,99928.81
2023-04-25T00:13:35.758Z,99928.45
2023-04-25T00:16:07.788Z,99931.63
2023-04-25T00:18:38.726Z,99935.26
2023-04-25T00:21:09.541Z,99939.26
2023-04-25T00:23:40.716Z,99934.29
2023-04-25T00:26:11.701Z,99933.02
2023-04-25T00:28:42.902Z,99931.27
2023-04-25T00:31:13.808Z,99934.23
2023-04-25T00:33:44.757Z,99932.15
2023-04-25T00:36:15.981Z,99935.86
2023-04-25T00:38:46.836Z,99935.23
2023-04-25T00:41:17.728Z,99929.98
2023-04-25T00:43:48.941Z,99924.59
2023-04-25T00:46:20.180Z,99928.36
2023-04-25T00:48:51.055Z,99927.94
2023-04-25T00:51:23.464Z,99939.68
2023-04-25T00:53:54.309Z,99942.39
2023-04-25T00:56:25.211Z,99946.02
2023-04-25T00:58:57.653Z,99937.20
2023-04-25T01:01:29.322Z,99939.83
2023-04-25T01:04:00.301Z,99943.09
2023-04-25T01:06:32.097Z,99945.02
2023-04-25T01:09:02.869Z,99942.92
2023-04-25T01:11:33.820Z,99943.85
2023-04-25T01:14:04.713Z,99930.70
2023-04-25T01:16:35.598Z,99921.09
2023-04-25T01:19:08.128Z,99912.48
2023-04-25T01:21:39.117Z,99907.25
2023-04-25T01:24:10.324Z,99904.80
2023-04-25T01:26:41.340Z,99900.67
2023-04-25T01:29:12.247Z,99905.83
2023-04-25T01:31:43.128Z,99911.13
2023-04-25T01:34:13.919Z,99909.88
2023-04-25T01:36:44.968Z,99911.02
2023-04-25T01:39:15.887Z,99916.74
2023-04-25T01:41:46.735Z,99918.80
2023-04-25T01:44:17.720Z,99920.59
2023-04-25T01:46:48.611Z,99926.69
2023-04-25T01:49:19.603Z,99925.33
2023-04-25T01:51:50.577Z,99919.36
2023-04-25T01:54:21.434Z,99913.52
2023-04-25T01:56:54.144Z,99920.84
2023-04-25T01:59:26.065Z,99917.05
2023-04-25T02:01:57.680Z,99910.55
2023-04-25T02:04:29.513Z,99914.88
2023-04-25T02:07:01.181Z,99912.66
2023-04-25T02:09:32.633Z,99911.29
2023-04-25T02:12:04.239Z,99908.08
2023-04-25T02:14:35.763Z,99903.98
2023-04-25T02:17:07.526Z,99896.92
2023-04-25T02:19:39.205Z,99893.56
2023-04-25T02:22:11.641Z,99891.51
2023-04-25T02:24:43.133Z,99887.65
2023-04-25T02:27:14.516Z,99886.42
2023-04-25T02:29:46.207Z,99887.09
2023-04-25T02:32:17.706Z,99892.81
2023-04-25T02:34:49.183Z,99890.67
2023-04-25T02:37:20.720Z,99887.81
2023-04-25T02:39:52.584Z,99882.16
2023-04-25T02:42:24.266Z,99876.79
2023-04-25T02:44:56.042Z,99873.13
2023-04-25T02:47:27.507Z,99866.98
2023-04-25T02:49:58.880Z,99862.30
2023-04-25T02:52:30.405Z,99860.30
2023-04-25T02:55:02.056Z,99859.01
2023-04-25T02:57:33.527Z,99853.09
2023-04-25T03:00:07.010Z,99851.30
2023-04-25T03:02:38.478Z,99849.67
2023-04-25T03:05:10.428Z,99847.02
2023-04-25T03:07:42.072Z,99846.73
2023-04-25T03:10:13.676Z,99845.54
2023-04-25T03:12:44.837Z,99840.53
2023-04-25T03:15:17.881Z,99843.19
2023-04-25T03:17:49.461Z,99841.82
2023-04-25T03:20:21.120Z,99845.28
2023-04-25T03:22:52.695Z,99841.83
2023-04-25T03:25:24.194Z,99841.60
2023-04-25T03:27:56.645Z,99837.17
2023-04-25T03:30:28.240Z,99836.47
2023-04-25T03:32:59.808Z,99839.06
2023-04-25T03:35:31.367Z,99837.35
2023-04-25T03:38:02.665Z,99843.85
2023-04-25T03:40:34.176Z,99842.66
2023-04-25T03:43:05.960Z,99839.52
2023-04-25T03:45:37.748Z,99843.80
2023-04-25T03:48:09.375Z,99843.60
2023-04-25T03:50:40.923Z,99838.48
2023-04-25T03:53:12.357Z,99838.19
2023-04-25T03:55:43.901Z,99840.92
2023-04-25T03:58:15.404Z,99844.80
2023-04-25T04:00:47.069Z,99845.23
2023-04-25T04:03:18.718Z,99847.52
2023-04-25T04:05:51.137Z,99848.59
2023-04-25T04:08:22.815Z,99852.42
2023-04-25T04:10:54.619Z,99851.42
2023-04-25T04:13:28.439Z,99853.23
2023-04-25T04:16:00.065Z,99854.48
2023-04-25T04:18:31.433Z,99859.60
2023-04-25T04:21:03.012Z,99858.55
2023-04-25T04:23:34.855Z,99854.95
2023-04-25T04:26:06.513Z,99857.05
2023-04-25T04:28:39.146Z,99858.24
2023-04-25T04:31:10.540Z,99860.45
2023-04-25T04:33:41.967Z,99866.34
2023-04-25T04:36:14.169Z,99869.67
2023-04-25T04:38:45.732Z,99865.97
2023-04-25T04:41:17.369Z,99865.70
2023-04-25T04:43:48.872Z,99867.34
2023-04-25T04:46:21.295Z,99870.14
2023-04-25T04:48:54.200Z,99874.38
2023-04-25T04:51:25.613Z,99872.45
2023-04-25T04:53:59.620Z,99881.02
2023-04-25T04:56:32.195Z,99881.73
2023-04-25T04:59:04.284Z,99887.10
2023-04-25T05:01:36.928Z,99887.92
2023-04-25T05:04:08.732Z,99886.52
2023-04-25T05:06:40.324Z,99886.83
2023-04-25T05:09:11.696Z,99889.82
2023-04-25T05:11:43.279Z,99889.16
2023-04-25T05:14:14.731Z,99886.70
2023-04-25T05:16:46.571Z,99883.94
2023-04-25T05:19:18.001Z,99885.38
2023-04-25T05:21:49.480Z,99888.73
2023-04-25T05:24:21.194Z,99887.36
2023-04-25T05:26:52.768Z,99885.15
2023-04-25T05:29:24.330Z,99883.00
2023-04-25T05:31:55.641Z,99887.20
2023-04-25T05:34:27.101Z,99885.61
2023-04-25T05:36:58.485Z,99885.27
2023-04-25T05:39:29.963Z,99884.08
2023-04-25T05:42:02.754Z,99886.90
2023-04-25T05:44:34.112Z,99883.76
2023-04-25T05:47:06.100Z,99884.15
2023-04-25T05:49:37.624Z,99877.58
2023-04-25T05:52:09.481Z,99876.92
2023-04-25T05:54:40.972Z,99877.02
2023-04-25T05:57:17.294Z,99879.10
2023-04-25T05:59:48.661Z,99876.40
2023-04-25T06:02:20.578Z,99876.70
2023-04-25T06:04:52.775Z,99872.45
2023-04-25T06:07:24.621Z,99875.56
2023-04-25T06:09:55.908Z,99872.84
2023-04-25T06:12:27.377Z,99873.92
2023-04-25T06:14:58.999Z,99873.11
2023-04-25T06:17:30.714Z,99872.52
2023-04-25T06:20:04.563Z,99871.60
2023-04-25T06:22:37.141Z,99869.19
2023-04-25T06:25:09.328Z,99870.30
2023-04-25T06:27:40.835Z,99868.77
2023-04-25T06:30:13.264Z,99864.67
2023-04-25T06:32:44.943Z,99861.98
2023-04-25T06:35:16.352Z,99863.70
2023-04-25T06:37:52.611Z,99864.86
2023-04-25T06:40:24.313Z,99867.28
2023-04-25T06:42:55.988Z,99869.25
2023-04-25T06:45:30.442Z,99867.73
2023-04-25T06:48:03.653Z,99867.25
2023-04-25T06:50:35.813Z,99868.08
2023-04-25T06:53:07.510Z,99866.98
2023-04-25T06:55:39.124Z,99867.48
2023-04-25T06:58:10.778Z,99872.23
2023-04-25T07:00:42.033Z,99869.14
2023-04-25T07:03:13.500Z,99869.30
2023-04-25T07:05:46.978Z,99867.23
2023-04-25T07:08:18.678Z,99872.36
2023-04-25T07:10:50.272Z,99873.19
2023-04-25T07:13:21.494Z,99869.29
2023-04-25T07:15:52.513Z,99868.41
2023-04-25T07:18:23.676Z,99869.70
2023-04-25T07:20:55.288Z,99869.58
2023-04-25T07:23:26.808Z,99868.70
2023-04-25T07:25:58.122Z,99868.27
2023-04-25T07:28:29.441Z,99867.53
2023-04-25T07:31:00.754Z,99867.55
2023-04-25T07:33:32.429Z,99868.27
2023-04-25T07:36:04.193Z,99866.73
2023-04-25T07:38:35.740Z,99865.80
2023-04-25T07:41:07.399Z,99863.83
2023-04-25T07:43:38.955Z,99859.25
2023-04-25T07:46:10.655Z,99854.64
2023-04-25T07:48:42.306Z,99854.27
2023-04-25T07:51:13.610Z,99852.29
2023-04-25T07:53:44.143Z,99850.27
2023-04-25T07:56:15.705Z,99846.38
2023-04-25T07:58:47.393Z,99839.44
2023-04-25T08:01:20.117Z,99836.95
2023-04-25T08:03:51.584Z,99836.32
2023-04-25T08:06:23.281Z,99831.97
2023-04-25T08:08:54.937Z,99832.27
2023-04-25T08:11:27.149Z,99834.86
2023-04-25T08:13:58.661Z,99839.54
2023-04-25T08:16:29.939Z,99838.52
2023-04-25T08:19:01.464Z,99841.20
2023-04-25T08:21:33.953Z,99842.52
2023-04-25T08:24:05.933Z,99842.94
2023-04-25T08:26:38.490Z,99846.09
2023-04-25T08:29:09.914Z,99846.41
2023-04-25T08:31:41.274Z,99851.80
2023-04-25T08:34:12.771Z,99854.92
2023-04-25T08:36:44.343Z,99857.86
2023-04-25T08:39:15.961Z,99857.66
2023-04-25T08:41:47.280Z,99856.90
2023-04-25T08:44:18.500Z,99853.61
2023-04-25T08:46:51.778Z,99854.42
2023-04-25T08:49:23.346Z,99858.17
2023-04-25T08:51:54.751Z,99857.29
2023-04-25T08:54:35.137Z,99859.80
2023-04-25T08:57:08.717Z,99863.54
2023-04-25T08:59:40.230Z,99862.27
2023-04-25T09:02:15.794Z,99864.81
2023-04-25T09:04:47.826Z,99864.15
2023-04-25T09:07:22.363Z,99861.52
2023-04-25T09:09:53.763Z,99863.98
2023-04-25T09:12:25.076Z,99864.48
2023-04-25T09:15:07.640Z,99864.09
2023-04-25T09:17:41.603Z,99864.09
2023-04-25T09:20:14.645Z,99862.27
2023-04-25T09:22:46.181Z,99861.36
2023-04-25T09:25:17.537Z,99860.52
2023-04-25T09:27:57.102Z,99864.54
2023-04-25T09:30:32.871Z,99865.52
2023-04-25T09:33:08.962Z,99865.73
2023-04-25T09:35:40.667Z,99867.20
2023-04-25T09:38:13.939Z,99865.59
2023-04-25T09:40:46.413Z,99862.14
2023-04-25T09:43:25.794Z,99855.44
2023-04-25T09:46:12.319Z,99856.83
2023-04-25T09:48:57.572Z,99852.48
2023-04-25T09:51:29.813Z,99851.67
2023-04-25T09:54:13.750Z,99847.23
2023-04-25T09:56:45.030Z,99845.80
2023-04-25T09:59:16.652Z,99846.75
2023-04-25T10:01:47.975Z,99843.16
2023-04-25T10:04:21.637Z,99841.53
2023-04-25T10:06:53.509Z,99831.98
2023-04-25T10:09:25.742Z,99831.58
2023-04-25T10:11:57.745Z,99830.09
2023-04-25T10:14:29.837Z,99824.50
2023-04-25T10:17:01.180Z,99815.29
2023-04-25T10:19:32.557Z,99803.74
2023-04-25T10:22:10.408Z,99797.51
2023-04-25T10:24:41.867Z,99792.63
2023-04-25T10:27:13.322Z,99796.75
2023-04-25T10:29:45.664Z,99795.54
2023-04-25T10:32:18.706Z,99797.00
2023-04-25T10:34:50.660Z,99801.70
2023-04-25T10:37:21.985Z,99799.59
2023-04-25T10:39:56.050Z,99806.56
2023-04-25T10:42:28.721Z,99802.85
2023-04-25T10:45:05.226Z,99800.46
2023-04-25T10:47:40.127Z,99795.92
2023-04-25T10:50:12.652Z,99788.52
2023-04-25T10:52:43.750Z,99787.98
2023-04-25T10:55:15.099Z,99781.69
2023-04-25T10:57:49.598Z,99776.20
2023-04-25T11:00:48.272Z,99774.36
2023-04-25T11:03:39.191Z,99768.30
2023-04-25T11:06:15.257Z,99768.69
2023-04-25T11:08:50.404Z,99765.34
2023-04-25T11:11:22.221Z,99770.46
2023-04-25T11:13:59.415Z,99769.06
2023-04-25T11:16:34.247Z,99759.19
2023-04-25T11:19:08.004Z,99751.73
2023-04-25T11:21:39.882Z,99747.45
2023-04-25T11:24:16.923Z,99741.64
2023-04-25T11:29:49.432Z,99727.30
2023-04-25T11:32:24.772Z,99725.36
2023-04-25T11:41:23.936Z,99707.44
2023-04-25T11:44:16.320Z,99705.57
2023-04-25T11:46:57.444Z,99702.42
2023-04-25T11:49:35.805Z,99695.28
2023-04-25T11:52:34.013Z,99693.76
2023-04-25T11:55:41.403Z,99696.54
2023-04-25T11:58:17.236Z,99701.41
2023-04-25T12:01:03.933Z,99723.38
2023-04-25T12:03:44.009Z,99769.98
2023-04-25T12:06:33.404Z,99769.34
2023-04-25T12:13:05.777Z,99740.82
2023-04-25T12:19:10.884Z,99733.19
2023-04-25T12:21:59.029Z,99718.61
2023-04-25T12:24:30.410Z,99699.05
2023-04-25T12:27:03.438Z,99690.42
2023-04-25T12:29:48.541Z,99692.70
2023-04-25T12:32:20.745Z,99702.09
2023-04-25T12:34:51.639Z,99707.03
2023-04-25T12:37:22.664Z,99708.70
2023-04-25T12:39:53.626Z,99714.09
2023-04-25T12:42:24.581Z,99712.17
2023-04-25T12:44:55.400Z,99718.04
2023-04-25T12:47:28.530Z,99729.05
2023-04-25T12:50:01.272Z,99720.86
2023-04-25T12:52:32.631Z,99714.98
2023-04-25T12:55:03.615Z,99709.59
2023-04-25T12:57:34.726Z,99706.58
2023-04-25T13:00:09.066Z,99710.95
2023-04-25T13:02:40.250Z,99702.88
2023-04-25T13:05:12.541Z,99698.38
2023-04-25T13:07:43.858Z,99694.33
2023-04-25T13:10:37.319Z,99686.72
2023-04-25T13:13:08.877Z,99682.89
2023-04-25T13:15:39.964Z,99686.28
2023-04-25T13:27:49.921Z,99677.23
2023-04-25T13:30:21.085Z,99677.00
2023-04-25T13:32:59.685Z,99665.58
2023-04-25T13:35:57.050Z,99660.33
2023-04-25T13:38:30.912Z,99664.71
2023-04-25T13:41:02.577Z,99665.95
2023-04-25T13:43:35.547Z,99660.98
2023-04-25T13:46:06.828Z,99659.60
2023-04-25T13:48:37.808Z,99658.27
2023-04-25T13:51:08.743Z,99651.90
2023-04-25T13:53:40.140Z,99646.75
2023-04-25T13:56:12.266Z,99647.32
2023-04-25T13:58:44.953Z,99650.16
2023-04-25T14:01:16.100Z,99643.00
2023-04-25T14:03:47.982Z,99641.42
2023-04-25T14:06:25.846Z,99638.94
2023-04-25T14:08:56.742Z,99632.21
2023-04-25T14:11:27.812Z,99624.42
2023-04-25T14:14:01.345Z,99623.23
2023-04-25T14:16:32.665Z,99622.51
2023-04-25T14:19:05.008Z,99621.73
2023-04-25T14:21:37.424Z,99625.29
2023-04-25T14:24:11.965Z,99620.21
2023-04-25T14:26:43.675Z,99617.78
2023-04-25T14:29:14.687Z,99613.33
2023-04-25T14:31:46.448Z,99610.41
2023-04-25T14:34:17.360Z,99609.30
2023-04-25T14:37:09.056Z,99609.47
2023-04-25T14:39:41.617Z,99608.67
2023-04-25T14:42:13.179Z,99600.52
2023-04-25T14:44:44.034Z,99602.87
2023-04-25T14:47:14.809Z,99602.59
2023-04-25T14:49:47.806Z,99599.27
2023-04-25T14:52:18.875Z,99598.64
2023-04-25T14:54:49.680Z,99599.25
2023-04-25T14:57:20.757Z,99587.91
2023-04-25T14:59:51.754Z,99576.23
2023-04-25T15:02:22.549Z,99571.89
2023-04-25T15:04:54.114Z,99569.21
2023-04-25T15:07:25.746Z,99562.12
2023-04-25T15:09:58.965Z,99558.09
2023-04-25T15:15:55.287Z,99553.39
2023-04-25T15:18:26.122Z,99572.09
2023-04-25T15:20:57.604Z,99565.57
2023-04-25T15:23:29.951Z,99562.10
2023-04-25T15:26:28.670Z,99563.92
2023-04-25T15:29:13.420Z,99558.81
2023-04-25T15:31:44.336Z,99560.48
2023-04-25T15:34:15.930Z,99567.06
2023-04-25T15:36:46.875Z,99572.79
2023-04-25T15:39:17.765Z,99578.14
2023-04-25T15:41:48.734Z,99584.26
2023-04-25T15:44:19.578Z,99582.44
2023-04-25T15:49:58.317Z,99585.29
2023-04-25T15:52:35.545Z,99581.89
2023-04-25T15:55:07.901Z,99577.55
2023-04-25T15:57:38.850Z,99578.16
2023-04-25T16:00:13.508Z,99580.86
2023-04-25T16:02:45.268Z,99583.14
2023-04-25T16:05:33.608Z,99588.54
2023-04-25T16:08:04.784Z,99589.43
2023-04-25T16:10:35.736Z,99587.56
2023-04-25T16:16:09.867Z,99587.92
2023-04-25T16:18:55.663Z,99589.78
2023-04-25T16:21:40.324Z,99594.41
2023-04-25T16:24:11.369Z,99593.41
2023-04-25T16:26:43.245Z,99594.63
2023-04-25T16:29:15.479Z,99594.64
2023-04-25T16:31:48.082Z,99590.86
2023-04-25T16:34:38.897Z,99588.64
2023-04-25T16:37:11.395Z,99582.86
2023-04-25T16:39:42.926Z,99589.00
2023-04-25T16:42:13.865Z,99591.11
2023-04-25T16:45:09.423Z,99589.85
2023-04-25T16:47:40.436Z,99593.88
2023-04-25T16:50:11.898Z,99592.69
2023-04-25T16:52:48.776Z,99597.83
2023-04-25T16:55:19.657Z,99596.87
2023-04-25T16:58:03.511Z,99603.05
2023-04-25T17:00:36.854Z,99601.48
2023-04-25T17:03:34.689Z,99606.27
2023-04-25T17:06:08.046Z,99604.14
2023-04-25T17:08:39.135Z,99608.97
2023-04-25T17:11:11.262Z,99610.74
2023-04-25T17:13:43.737Z,99615.61
2023-04-25T17:16:16.955Z,99621.21
2023-04-25T17:18:49.970Z,99616.80
2023-04-25T17:25:33.425Z,99623.23
2023-04-25T17:28:04.636Z,99632.79
2023-04-25T17:36:17.967Z,99640.58
2023-04-25T17:39:07.690Z,99640.77
2023-04-25T17:41:40.573Z,99639.08
2023-04-25T17:44:16.090Z,99642.88
2023-04-25T17:46:47.278Z,99647.66
2023-04-25T17:49:20.597Z,99650.42
2023-04-25T17:51:51.370Z,99650.98
2023-04-25T17:54:22.868Z,99660.02
2023-04-25T17:56:55.427Z,99664.69
2023-04-25T17:59:34.497Z,99671.73
2023-04-25T18:02:07.764Z,99670.17
2023-04-25T18:04:43.364Z,99672.77
2023-04-25T18:07:14.386Z,99670.17
2023-04-25T18:09:46.028Z,99673.92
2023-04-25T18:12:18.175Z,99675.81
2023-04-25T18:14:49.411Z,99673.86
2023-04-25T18:17:25.940Z,99676.87
2023-04-25T18:19:57.795Z,99679.66
2023-04-25T18:22:28.784Z,99681.61
2023-04-25T18:25:09.324Z,99678.06
2023-04-25T18:27:40.865Z,99679.05
2023-04-25T18:30:12.811Z,99679.39
2023-04-25T18:32:43.775Z,99683.67
2023-04-25T18:35:14.690Z,99679.20
2023-04-25T18:37:45.700Z,99677.37
2023-04-25T18:40:19.534Z,99676.70
2023-04-25T18:42:50.358Z,99674.48
2023-04-25T18:48:30.645Z,99672.52
2023-04-25T18:51:01.968Z,99671.63
2023-04-25T18:53:33.578Z,99671.30
2023-04-25T18:56:19.351Z,99669.19
2023-04-25T18:58:53.656Z,99668.57
2023-04-25T19:01:25.850Z,99669.63
2023-04-25T19:03:57.561Z,99669.02
2023-04-25T19:06:29.782Z,99674.65
2023-04-25T19:09:02.936Z,99670.79
2023-04-25T19:11:33.824Z,99669.74
2023-04-25T19:14:04.839Z,99671.78
2023-04-25T19:16:39.244Z,99675.00
2023-04-25T19:19:18.804Z,99673.04
2023-04-25T19:21:50.880Z,99672.32
2023-04-25T19:24:26.552Z,99667.83
2023-04-25T19:27:00.385Z,99668.88
2023-04-25T19:29:32.798Z,99664.58
2023-04-25T19:32:06.127Z,99667.67
2023-04-25T19:34:39.490Z,99675.56
2023-04-25T19:37:11.298Z,99672.73
2023-04-25T19:39:42.408Z,99674.35
2023-04-25T19:42:16.601Z,99676.30
2023-04-25T19:44:48.602Z,99680.66
2023-04-25T19:47:19.412Z,99682.66
2023-04-25T19:49:50.429Z,99681.16
2023-04-25T19:52:21.341Z,99681.04
2023-04-25T19:55:02.608Z,99678.73
2023-04-25T19:57:38.107Z,99683.65
2023-04-25T20:00:12.199Z,99685.48
2023-04-25T20:02:46.587Z,99686.92
2023-04-25T20:05:18.032Z,99687.58
2023-04-25T20:07:53.461Z,99684.82
2023-04-25T20:10:26.230Z,99689.08
2023-04-25T20:13:03.791Z,99683.52
2023-04-25T20:15:36.566Z,99680.89
2023-04-25T20:18:28.943Z,99681.85
2023-04-25T20:21:16.192Z,99682.24
2023-04-25T20:23:52.090Z,99683.54
2023-04-25T20:26:23.243Z,99680.63
2023-04-25T20:31:58.128Z,99677.95
2023-04-25T20:34:34.082Z,99678.52
2023-04-25T20:37:05.540Z,99677.91
2023-04-25T20:39:40.368Z,99673.23
2023-04-25T20:42:12.399Z,99665.83
2023-04-25T20:44:43.340Z,99668.27
2023-04-25T20:47:16.827Z,99666.27
2023-04-25T20:49:47.997Z,99665.75
2023-04-25T20:52:21.345Z,99664.45
2023-04-25T20:54:54.420Z,99662.73
2023-04-25T20:57:27.756Z,99659.45
2023-04-25T21:00:14.116Z,99661.91
2023-04-25T21:02:46.277Z,99660.31
2023-04-25T21:05:17.430Z,99657.80
2023-04-25T21:07:54.607Z,99655.69
2023-04-25T21:10:26.988Z,99657.10
2023-04-25T21:13:16.503Z,99657.70
2023-04-25T21:15:47.286Z,99660.84
2023-04-25T21:18:18.286Z,99661.13
2023-04-25T21:20:49.128Z,99657.60
2023-04-25T21:23:20.182Z,99653.47
2023-04-25T21:25:53.526Z,99653.69
2023-04-25T21:28:24.758Z,99653.27
2023-04-25T21:30:55.736Z,99655.79
2023-04-25T21:33:26.632Z,99657.41
2023-04-25T21:35:57.585Z,99654.09
2023-04-25T21:38:28.507Z,99654.23
2023-04-25T21:40:59.198Z,99651.48
2023-04-25T21:43:30.006Z,99654.64
2023-04-25T21:48:34.661Z,99652.14
2023-04-25T21:51:05.853Z,99651.98
2023-04-25T21:53:36.758Z,99654.42
2023-04-25T21:56:07.868Z,99649.16
2023-04-25T21:58:38.618Z,99646.84
2023-04-25T22:01:10.080Z,99644.95
2023-04-25T22:03:41.180Z,99647.49
2023-04-25T22:06:12.120Z,99646.45
2023-04-25T22:08:43.904Z,99643.60
2023-04-25T22:11:14.923Z,99640.71
2023-04-25T22:13:47.260Z,99635.89
2023-04-25T22:16:18.123Z,99634.11
2023-04-25T22:18:49.645Z,99637.98
2023-04-25T22:21:20.751Z,99641.80
2023-04-25T22:23:52.354Z,99643.13
2023-04-25T22:26:23.280Z,99637.96
2023-04-25T22:28:54.395Z,99641.65
2023-04-25T22:31:25.500Z,99634.79
2023-04-25T22:33:56.424Z,99629.21
2023-04-25T22:36:27.744Z,99637.58
2023-04-25T22:38:58.741Z,99636.85
2023-04-25T22:41:29.846Z,99635.17
2023-04-25T22:44:00.766Z,99638.78
2023-04-25T22:46:31.684Z,99638.17
2023-04-25T22:49:02.756Z,99634.43
2023-04-25T22:51:33.672Z,99636.65
2023-04-25T22:54:05.648Z,99635.17
2023-04-25T22:56:36.765Z,99632.64
2023-04-25T22:59:07.753Z,99634.55
2023-04-25T23:01:38.480Z,99635.27
2023-04-25T23:04:10.280Z,99636.36
2023-04-25T23:06:41.733Z,99639.56
2023-04-25T23:09:13.907Z,99635.73
2023-04-25T23:11:44.694Z,99638.86
2023-04-25T23:14:15.641Z,99634.77
2023-04-25T23:16:46.766Z,99639.45
2023-04-25T23:19:17.959Z,99635.67
2023-04-25T23:21:49.001Z,99627.42
2023-04-25T23:24:19.896Z,99627.64
2023-04-25T23:26:50.846Z,99623.14
2023-04-25T23:29:21.556Z,99621.77
2023-04-25T23:31:52.363Z,99623.36
2023-04-25T23:34:23.172Z,99621.17
2023-04-25T23:36:54.165Z,99617.91
2023-04-25T23:39:24.951Z,99620.14
2023-04-25T23:41:55.916Z,99620.11
2023-04-25T23:44:27.075Z,99621.39
2023-04-25T23:46:57.815Z,99617.92
2023-04-25T23:49:28.565Z,99615.05
2023-04-25T23:52:01.620Z,99617.02
2023-04-25T23:54:32.498Z,99613.05
2023-04-25T23:57:04.869Z,99607.52
2023-04-25T23:59:35.750Z,99603.14
